sensor_id;sensor_type;location;lat;lon;timestamp;temperature;humidity
17639;DHT22;8938;53.546;9.954;2023-02-14T00:01:23;10.80;99.90
17639;DHT22;8938;53.546;9.954;2023-02-14T00:03:49;10.80;99.90
17639;DHT22;8938;53.546;9.954;2023-02-14T00:06:14;10.80;99.90
17639;DHT22;8938;53.546;9.954;2023-02-14T00:08:41;10.90;99.90
17639;DHT22;8938;53.546;9.954;2023-02-14T00:11:10;10.90;99.90
17639;DHT22;8938;53.546;9.954;2023-02-14T00:13:36;11.00;99.90
17639;DHT22;8938;53.546;9.954;2023-02-14T00:16:02;11.00;99.90
17639;DHT22;8938;53.546;9.954;2023-02-14T00:18:28;11.00;99.90
17639;DHT22;8938;53.546;9.954;2023-02-14T00:21:13;11.10;99.90
17639;DHT22;8938;53.546;9.954;2023-02-14T00:23:39;11.10;99.90
17639;DHT22;8938;53.546;9.954;2023-02-14T00:26:05;11.10;99.90
17639;DHT22;8938;53.546;9.954;2023-02-14T00:28:36;11.10;99.90
17639;DHT22;8938;53.546;9.954;2023-02-14T00:31:02;11.20;99.90
17639;DHT22;8938;53.546;9.954;2023-02-14T00:33:27;11.30;99.90
17639;DHT22;8938;53.546;9.954;2023-02-14T00:35:53;11.20;99.90
17639;DHT22;8938;53.546;9.954;2023-02-14T00:38:18;11.20;99.90
17639;DHT22;8938;53.546;9.954;2023-02-14T00:40:44;11.20;99.90
17639;DHT22;8938;53.546;9.954;2023-02-14T00:43:09;11.30;99.90
17639;DHT22;8938;53.546;9.954;2023-02-14T00:45:35;11.30;99.90
17639;DHT22;8938;53.546;9.954;2023-02-14T00:48:00;11.10;99.90
17639;DHT22;8938;53.546;9.954;2023-02-14T00:50:26;11.10;99.90
17639;DHT22;8938;53.546;9.954;2023-02-14T00:52:51;11.10;99.90
17639;DHT22;8938;53.546;9.954;2023-02-14T00:55:17;11.00;99.90
17639;DHT22;8938;53.546;9.954;2023-02-14T00:57:42;11.00;99.90
17639;DHT22;8938;53.546;9.954;2023-02-14T01:00:08;10.90;99.90
17639;DHT22;8938;53.546;9.954;2023-02-14T01:02:34;10.90;99.90
17639;DHT22;8938;53.546;9.954;2023-02-14T01:04:59;10.80;99.90
17639;DHT22;8938;53.546;9.954;2023-02-14T01:07:25;10.70;99.90
17639;DHT22;8938;53.546;9.954;2023-02-14T01:09:50;10.40;99.90
17639;DHT22;8938;53.546;9.954;2023-02-14T01:12:16;10.60;99.90
17639;DHT22;8938;53.546;9.954;2023-02-14T01:14:42;10.70;99.90
17639;DHT22;8938;53.546;9.954;2023-02-14T01:17:07;10.60;99.90
17639;DHT22;8938;53.546;9.954;2023-02-14T01:19:33;10.70;99.90
17639;DHT22;8938;53.546;9.954;2023-02-14T01:21:58;10.80;99.90
17639;DHT22;8938;53.546;9.954;2023-02-14T01:24:24;10.90;99.90
17639;DHT22;8938;53.546;9.954;2023-02-14T01:26:50;10.90;99.90
17639;DHT22;8938;53.546;9.954;2023-02-14T01:29:16;10.90;99.90
17639;DHT22;8938;53.546;9.954;2023-02-14T01:31:41;10.90;99.90
17639;DHT22;8938;53.546;9.954;2023-02-14T01:34:07;10.80;99.90
17639;DHT22;8938;53.546;9.954;2023-02-14T01:36:37;10.70;99.90
17639;DHT22;8938;53.546;9.954;2023-02-14T01:39:06;10.70;99.90
17639;DHT22;8938;53.546;9.954;2023-02-14T01:41:33;10.60;99.90
17639;DHT22;8938;53.546;9.954;2023-02-14T01:44:05;10.50;99.90
17639;DHT22;8938;53.546;9.954;2023-02-14T01:46:36;10.60;99.90
17639;DHT22;8938;53.546;9.954;2023-02-14T01:51:57;10.50;99.90
17639;DHT22;8938;53.546;9.954;2023-02-14T01:54:26;10.50;99.90
17639;DHT22;8938;53.546;9.954;2023-02-14T01:56:57;10.50;99.90
17639;DHT22;8938;53.546;9.954;2023-02-14T01:59:29;10.50;99.90
17639;DHT22;8938;53.546;9.954;2023-02-14T02:01:56;10.60;99.90
17639;DHT22;8938;53.546;9.954;2023-02-14T02:04:25;10.60;99.90
17639;DHT22;8938;53.546;9.954;2023-02-14T02:06:58;10.60;99.90
17639;DHT22;8938;53.546;9.954;2023-02-14T02:09:34;10.60;99.90
17639;DHT22;8938;53.546;9.954;2023-02-14T02:12:01;10.60;99.90
17639;DHT22;8938;53.546;9.954;2023-02-14T02:14:28;10.60;99.90
17639;DHT22;8938;53.546;9.954;2023-02-14T02:36:10;10.30;99.90
17639;DHT22;8938;53.546;9.954;2023-02-14T02:38:52;10.30;99.90
17639;DHT22;8938;53.546;9.954;2023-02-14T02:44:20;10.40;99.90
17639;DHT22;8938;53.546;9.954;2023-02-14T02:49:54;10.60;99.90
17639;DHT22;8938;53.546;9.954;2023-02-14T02:53:01;10.60;99.90
17639;DHT22;8938;53.546;9.954;2023-02-14T02:58:38;10.40;99.90
17639;DHT22;8938;53.546;9.954;2023-02-14T03:01:09;10.40;99.90
17639;DHT22;8938;53.546;9.954;2023-02-14T03:03:38;10.40;99.90
17639;DHT22;8938;53.546;9.954;2023-02-14T03:06:23;10.60;99.90
17639;DHT22;8938;53.546;9.954;2023-02-14T03:08:49;10.50;99.90
17639;DHT22;8938;53.546;9.954;2023-02-14T03:11:15;10.40;99.90
17639;DHT22;8938;53.546;9.954;2023-02-14T03:13:53;10.40;99.90
17639;DHT22;8938;53.546;9.954;2023-02-14T03:16:26;10.40;99.90
17639;DHT22;8938;53.546;9.954;2023-02-14T03:19:08;10.50;99.90
17639;DHT22;8938;53.546;9.954;2023-02-14T03:22:03;10.50;99.90
17639;DHT22;8938;53.546;9.954;2023-02-14T03:24:55;10.50;99.90
17639;DHT22;8938;53.546;9.954;2023-02-14T03:27:26;10.60;99.90
17639;DHT22;8938;53.546;9.954;2023-02-14T03:30:23;10.50;99.90
17639;DHT22;8938;53.546;9.954;2023-02-14T03:33:08;10.50;99.90
17639;DHT22;8938;53.546;9.954;2023-02-14T03:35:55;10.40;99.90
17639;DHT22;8938;53.546;9.954;2023-02-14T03:38:28;10.20;99.90
17639;DHT22;8938;53.546;9.954;2023-02-14T03:41:04;10.10;99.90
17639;DHT22;8938;53.546;9.954;2023-02-14T03:43:38;10.00;99.90
17639;DHT22;8938;53.546;9.954;2023-02-14T03:46:09;10.00;99.90
17639;DHT22;8938;53.546;9.954;2023-02-14T03:48:37;9.70;99.90
17639;DHT22;8938;53.546;9.954;2023-02-14T03:51:06;9.90;99.90
17639;DHT22;8938;53.546;9.954;2023-02-14T03:53:35;10.00;99.90
17639;DHT22;8938;53.546;9.954;2023-02-14T03:58:38;10.00;99.90
17639;DHT22;8938;53.546;9.954;2023-02-14T04:01:12;10.00;99.90
17639;DHT22;8938;53.546;9.954;2023-02-14T04:03:41;10.00;99.90
17639;DHT22;8938;53.546;9.954;2023-02-14T04:06:07;10.00;99.90
17639;DHT22;8938;53.546;9.954;2023-02-14T04:08:32;10.00;99.90
17639;DHT22;8938;53.546;9.954;2023-02-14T04:11:00;10.00;99.90
17639;DHT22;8938;53.546;9.954;2023-02-14T04:13:26;10.00;99.90
17639;DHT22;8938;53.546;9.954;2023-02-14T04:15:52;10.00;99.90
17639;DHT22;8938;53.546;9.954;2023-02-14T04:18:17;10.00;99.90
17639;DHT22;8938;53.546;9.954;2023-02-14T04:21:02;9.90;99.90
17639;DHT22;8938;53.546;9.954;2023-02-14T04:23:27;10.00;99.90
17639;DHT22;8938;53.546;9.954;2023-02-14T04:25:53;9.90;99.90
17639;DHT22;8938;53.546;9.954;2023-02-14T04:28:19;10.00;99.90
17639;DHT22;8938;53.546;9.954;2023-02-14T04:30:44;10.00;99.90
17639;DHT22;8938;53.546;9.954;2023-02-14T04:33:10;10.10;99.90
17639;DHT22;8938;53.546;9.954;2023-02-14T04:35:35;10.10;99.90
17639;DHT22;8938;53.546;9.954;2023-02-14T04:38:02;10.10;99.90
17639;DHT22;8938;53.546;9.954;2023-02-14T04:40:34;10.00;99.90
17639;DHT22;8938;53.546;9.954;2023-02-14T04:43:00;10.00;99.90
17639;DHT22;8938;53.546;9.954;2023-02-14T04:45:26;10.10;99.90
17639;DHT22;8938;53.546;9.954;2023-02-14T04:47:51;10.20;99.90
17639;DHT22;8938;53.546;9.954;2023-02-14T04:50:17;10.10;99.90
17639;DHT22;8938;53.546;9.954;2023-02-14T04:52:46;10.30;99.90
17639;DHT22;8938;53.546;9.954;2023-02-14T04:55:12;10.10;99.90
17639;DHT22;8938;53.546;9.954;2023-02-14T04:57:37;10.10;99.90
17639;DHT22;8938;53.546;9.954;2023-02-14T05:00:03;10.20;99.90
17639;DHT22;8938;53.546;9.954;2023-02-14T05:02:29;10.30;99.90
17639;DHT22;8938;53.546;9.954;2023-02-14T05:05:04;10.20;99.90
17639;DHT22;8938;53.546;9.954;2023-02-14T05:07:30;10.20;99.90
17639;DHT22;8938;53.546;9.954;2023-02-14T05:09:55;10.10;99.90
17639;DHT22;8938;53.546;9.954;2023-02-14T05:12:21;10.00;99.90
17639;DHT22;8938;53.546;9.954;2023-02-14T05:14:46;9.90;99.90
17639;DHT22;8938;53.546;9.954;2023-02-14T05:17:12;10.00;99.90
17639;DHT22;8938;53.546;9.954;2023-02-14T05:19:38;10.80;99.90
17639;DHT22;8938;53.546;9.954;2023-02-14T05:22:03;10.10;99.90
17639;DHT22;8938;53.546;9.954;2023-02-14T05:24:29;10.10;99.90
17639;DHT22;8938;53.546;9.954;2023-02-14T05:26:54;10.20;99.90
17639;DHT22;8938;53.546;9.954;2023-02-14T05:29:20;10.20;99.90
17639;DHT22;8938;53.546;9.954;2023-02-14T05:31:54;10.30;99.90
17639;DHT22;8938;53.546;9.954;2023-02-14T05:34:19;10.30;99.90
17639;DHT22;8938;53.546;9.954;2023-02-14T05:36:45;10.30;99.90
17639;DHT22;8938;53.546;9.954;2023-02-14T05:39:10;10.20;99.90
17639;DHT22;8938;53.546;9.954;2023-02-14T05:41:39;10.10;99.90
17639;DHT22;8938;53.546;9.954;2023-02-14T05:44:04;10.10;99.90
17639;DHT22;8938;53.546;9.954;2023-02-14T05:46:30;10.10;99.90
17639;DHT22;8938;53.546;9.954;2023-02-14T05:48:55;10.10;99.90
17639;DHT22;8938;53.546;9.954;2023-02-14T05:51:21;10.10;99.90
17639;DHT22;8938;53.546;9.954;2023-02-14T05:53:46;10.00;99.90
17639;DHT22;8938;53.546;9.954;2023-02-14T05:56:12;9.90;99.90
17639;DHT22;8938;53.546;9.954;2023-02-14T05:58:37;9.80;99.90
17639;DHT22;8938;53.546;9.954;2023-02-14T06:01:03;10.70;99.90
17639;DHT22;8938;53.546;9.954;2023-02-14T06:03:28;9.80;99.90
17639;DHT22;8938;53.546;9.954;2023-02-14T06:05:54;9.90;99.90
17639;DHT22;8938;53.546;9.954;2023-02-14T06:08:20;9.90;99.90
17639;DHT22;8938;53.546;9.954;2023-02-14T06:10:46;10.10;99.90
17639;DHT22;8938;53.546;9.954;2023-02-14T06:13:12;10.10;99.90
17639;DHT22;8938;53.546;9.954;2023-02-14T06:15:37;10.20;99.90
17639;DHT22;8938;53.546;9.954;2023-02-14T06:18:04;10.20;99.90
17639;DHT22;8938;53.546;9.954;2023-02-14T06:20:33;10.00;99.90
17639;DHT22;8938;53.546;9.954;2023-02-14T06:22:58;9.80;99.90
17639;DHT22;8938;53.546;9.954;2023-02-14T06:25:25;9.70;99.90
17639;DHT22;8938;53.546;9.954;2023-02-14T06:27:50;9.80;99.90
17639;DHT22;8938;53.546;9.954;2023-02-14T06:30:19;9.70;99.90
17639;DHT22;8938;53.546;9.954;2023-02-14T06:32:44;9.60;99.90
17639;DHT22;8938;53.546;9.954;2023-02-14T06:35:26;9.50;99.90
17639;DHT22;8938;53.546;9.954;2023-02-14T06:37:52;9.40;99.90
17639;DHT22;8938;53.546;9.954;2023-02-14T06:40:18;9.50;99.90
17639;DHT22;8938;53.546;9.954;2023-02-14T06:42:43;9.40;99.90
17639;DHT22;8938;53.546;9.954;2023-02-14T06:45:09;9.50;99.90
17639;DHT22;8938;53.546;9.954;2023-02-14T06:47:35;9.50;99.90
17639;DHT22;8938;53.546;9.954;2023-02-14T06:50:01;9.60;99.90
17639;DHT22;8938;53.546;9.954;2023-02-14T06:52:29;9.60;99.90
17639;DHT22;8938;53.546;9.954;2023-02-14T06:54:54;9.60;99.90
17639;DHT22;8938;53.546;9.954;2023-02-14T06:57:20;9.70;99.90
17639;DHT22;8938;53.546;9.954;2023-02-14T06:59:46;9.70;99.90
17639;DHT22;8938;53.546;9.954;2023-02-14T07:02:12;9.80;99.90
17639;DHT22;8938;53.546;9.954;2023-02-14T07:04:37;9.80;99.90
17639;DHT22;8938;53.546;9.954;2023-02-14T07:07:03;9.80;99.90
17639;DHT22;8938;53.546;9.954;2023-02-14T07:09:29;9.70;99.90
17639;DHT22;8938;53.546;9.954;2023-02-14T07:11:54;9.70;99.90
17639;DHT22;8938;53.546;9.954;2023-02-14T07:14:20;9.60;99.90
17639;DHT22;8938;53.546;9.954;2023-02-14T07:16:46;9.60;99.90
17639;DHT22;8938;53.546;9.954;2023-02-14T07:19:11;9.60;99.90
17639;DHT22;8938;53.546;9.954;2023-02-14T07:21:37;9.80;99.90
17639;DHT22;8938;53.546;9.954;2023-02-14T07:24:03;9.90;99.90
17639;DHT22;8938;53.546;9.954;2023-02-14T07:26:28;10.00;99.90
17639;DHT22;8938;53.546;9.954;2023-02-14T07:28:54;9.90;99.90
17639;DHT22;8938;53.546;9.954;2023-02-14T07:31:19;9.90;99.90
17639;DHT22;8938;53.546;9.954;2023-02-14T07:33:48;9.90;99.90
17639;DHT22;8938;53.546;9.954;2023-02-14T07:36:13;9.90;99.90
17639;DHT22;8938;53.546;9.954;2023-02-14T07:38:39;9.80;99.90
17639;DHT22;8938;53.546;9.954;2023-02-14T07:41:04;9.90;99.90
17639;DHT22;8938;53.546;9.954;2023-02-14T07:43:30;10.00;99.90
17639;DHT22;8938;53.546;9.954;2023-02-14T07:45:59;10.10;99.90
17639;DHT22;8938;53.546;9.954;2023-02-14T07:48:24;10.10;99.90
17639;DHT22;8938;53.546;9.954;2023-02-14T07:50:50;10.10;99.90
17639;DHT22;8938;53.546;9.954;2023-02-14T07:53:16;10.10;99.90
17639;DHT22;8938;53.546;9.954;2023-02-14T07:55:41;10.10;99.90
17639;DHT22;8938;53.546;9.954;2023-02-14T07:58:08;10.10;99.90
17639;DHT22;8938;53.546;9.954;2023-02-14T08:00:33;10.10;99.90
17639;DHT22;8938;53.546;9.954;2023-02-14T08:02:59;10.10;99.90
17639;DHT22;8938;53.546;9.954;2023-02-14T08:05:27;10.40;99.90
17639;DHT22;8938;53.546;9.954;2023-02-14T08:07:53;10.00;99.90
17639;DHT22;8938;53.546;9.954;2023-02-14T08:10:18;10.00;99.90
17639;DHT22;8938;53.546;9.954;2023-02-14T08:12:44;10.00;99.90
17639;DHT22;8938;53.546;9.954;2023-02-14T08:15:34;10.00;99.90
17639;DHT22;8938;53.546;9.954;2023-02-14T08:18:20;10.00;99.90
17639;DHT22;8938;53.546;9.954;2023-02-14T08:20:47;10.00;99.90
17639;DHT22;8938;53.546;9.954;2023-02-14T08:23:14;10.10;99.90
17639;DHT22;8938;53.546;9.954;2023-02-14T08:25:40;10.10;99.90
17639;DHT22;8938;53.546;9.954;2023-02-14T08:28:06;10.20;99.90
17639;DHT22;8938;53.546;9.954;2023-02-14T08:30:36;10.20;99.90
17639;DHT22;8938;53.546;9.954;2023-02-14T08:33:02;10.40;99.90
17639;DHT22;8938;53.546;9.954;2023-02-14T08:35:28;10.40;99.90
17639;DHT22;8938;53.546;9.954;2023-02-14T08:37:53;10.30;99.90
17639;DHT22;8938;53.546;9.954;2023-02-14T08:40:21;10.20;99.90
17639;DHT22;8938;53.546;9.954;2023-02-14T08:42:47;10.20;99.90
17639;DHT22;8938;53.546;9.954;2023-02-14T08:45:12;10.20;99.90
17639;DHT22;8938;53.546;9.954;2023-02-14T08:47:37;10.30;99.90
17639;DHT22;8938;53.546;9.954;2023-02-14T08:50:06;10.30;99.90
17639;DHT22;8938;53.546;9.954;2023-02-14T08:52:31;10.40;99.90
17639;DHT22;8938;53.546;9.954;2023-02-14T08:54:57;10.40;99.90
17639;DHT22;8938;53.546;9.954;2023-02-14T08:57:23;10.50;99.90
17639;DHT22;8938;53.546;9.954;2023-02-14T08:59:49;10.50;99.90
17639;DHT22;8938;53.546;9.954;2023-02-14T09:02:15;10.50;99.90
17639;DHT22;8938;53.546;9.954;2023-02-14T09:04:40;10.50;99.90
17639;DHT22;8938;53.546;9.954;2023-02-14T09:07:06;10.50;99.90
17639;DHT22;8938;53.546;9.954;2023-02-14T09:09:32;10.50;99.90
17639;DHT22;8938;53.546;9.954;2023-02-14T09:11:57;10.50;99.90
17639;DHT22;8938;53.546;9.954;2023-02-14T09:14:23;10.50;99.90
17639;DHT22;8938;53.546;9.954;2023-02-14T09:16:49;10.60;99.90
17639;DHT22;8938;53.546;9.954;2023-02-14T09:19:15;10.60;99.90
17639;DHT22;8938;53.546;9.954;2023-02-14T09:21:43;10.80;99.90
17639;DHT22;8938;53.546;9.954;2023-02-14T09:24:09;11.30;99.90
17639;DHT22;8938;53.546;9.954;2023-02-14T09:26:34;12.00;99.90
17639;DHT22;8938;53.546;9.954;2023-02-14T09:29:03;12.30;99.90
17639;DHT22;8938;53.546;9.954;2023-02-14T09:31:28;12.40;99.90
17639;DHT22;8938;53.546;9.954;2023-02-14T09:33:54;12.50;99.90
17639;DHT22;8938;53.546;9.954;2023-02-14T09:36:20;12.50;99.90
17639;DHT22;8938;53.546;9.954;2023-02-14T09:38:46;12.40;99.90
17639;DHT22;8938;53.546;9.954;2023-02-14T09:41:37;12.20;99.90
17639;DHT22;8938;53.546;9.954;2023-02-14T09:44:25;12.10;99.90
17639;DHT22;8938;53.546;9.954;2023-02-14T09:47:05;12.40;99.90
17639;DHT22;8938;53.546;9.954;2023-02-14T09:49:34;12.50;99.90
17639;DHT22;8938;53.546;9.954;2023-02-14T09:52:03;12.70;99.90
17639;DHT22;8938;53.546;9.954;2023-02-14T09:54:32;12.90;99.90
17639;DHT22;8938;53.546;9.954;2023-02-14T10:00:11;12.80;99.90
17639;DHT22;8938;53.546;9.954;2023-02-14T10:03:00;12.60;99.90
17639;DHT22;8938;53.546;9.954;2023-02-14T10:05:29;12.40;99.90
17639;DHT22;8938;53.546;9.954;2023-02-14T10:08:02;12.30;99.90
17639;DHT22;8938;53.546;9.954;2023-02-14T10:10:36;12.30;99.90
17639;DHT22;8938;53.546;9.954;2023-02-14T10:13:25;12.30;99.90
17639;DHT22;8938;53.546;9.954;2023-02-14T10:15:58;12.50;99.90
17639;DHT22;8938;53.546;9.954;2023-02-14T10:21:40;12.70;99.90
17639;DHT22;8938;53.546;9.954;2023-02-14T10:27:05;12.20;99.90
17639;DHT22;8938;53.546;9.954;2023-02-14T10:29:34;12.10;99.90
17639;DHT22;8938;53.546;9.954;2023-02-14T10:32:03;12.00;99.90
17639;DHT22;8938;53.546;9.954;2023-02-14T10:34:45;11.90;99.90
17639;DHT22;8938;53.546;9.954;2023-02-14T10:40:16;11.90;99.90
17639;DHT22;8938;53.546;9.954;2023-02-14T10:43:03;12.00;99.90
17639;DHT22;8938;53.546;9.954;2023-02-14T10:48:43;11.90;99.90
17639;DHT22;8938;53.546;9.954;2023-02-14T10:54:25;11.90;99.90
17639;DHT22;8938;53.546;9.954;2023-02-14T10:57:02;12.00;99.90
17639;DHT22;8938;53.546;9.954;2023-02-14T10:59:33;12.00;99.90
17639;DHT22;8938;53.546;9.954;2023-02-14T11:01:59;12.10;99.90
17639;DHT22;8938;53.546;9.954;2023-02-14T11:04:25;12.20;99.90
17639;DHT22;8938;53.546;9.954;2023-02-14T11:06:51;12.10;99.90
17639;DHT22;8938;53.546;9.954;2023-02-14T11:09:18;12.20;99.90
17639;DHT22;8938;53.546;9.954;2023-02-14T11:11:52;12.20;99.90
17639;DHT22;8938;53.546;9.954;2023-02-14T11:16:52;12.20;99.90
17639;DHT22;8938;53.546;9.954;2023-02-14T11:19:36;12.30;99.90
17639;DHT22;8938;53.546;9.954;2023-02-14T11:22:03;12.20;99.90
17639;DHT22;8938;53.546;9.954;2023-02-14T11:24:38;12.30;99.90
17639;DHT22;8938;53.546;9.954;2023-02-14T11:27:16;12.30;99.90
17639;DHT22;8938;53.546;9.954;2023-02-14T11:29:44;12.30;99.90
17639;DHT22;8938;53.546;9.954;2023-02-14T11:32:23;12.40;99.90
17639;DHT22;8938;53.546;9.954;2023-02-14T11:35:03;13.70;99.90
17639;DHT22;8938;53.546;9.954;2023-02-14T11:37:35;13.10;99.90
17639;DHT22;8938;53.546;9.954;2023-02-14T11:40:04;13.00;99.90
17639;DHT22;8938;53.546;9.954;2023-02-14T11:42:38;12.90;99.90
17639;DHT22;8938;53.546;9.954;2023-02-14T11:45:05;12.80;99.90
17639;DHT22;8938;53.546;9.954;2023-02-14T11:47:33;12.60;99.90
17639;DHT22;8938;53.546;9.954;2023-02-14T11:50:06;12.60;99.90
17639;DHT22;8938;53.546;9.954;2023-02-14T11:52:53;12.60;99.90
17639;DHT22;8938;53.546;9.954;2023-02-14T11:55:31;12.60;99.90
17639;DHT22;8938;53.546;9.954;2023-02-14T11:58:02;12.70;99.90
17639;DHT22;8938;53.546;9.954;2023-02-14T12:00:29;12.80;99.90
17639;DHT22;8938;53.546;9.954;2023-02-14T12:02:59;12.90;99.90
17639;DHT22;8938;53.546;9.954;2023-02-14T12:05:44;13.00;99.90
17639;DHT22;8938;53.546;9.954;2023-02-14T12:08:11;12.90;99.90
17639;DHT22;8938;53.546;9.954;2023-02-14T12:10:39;12.90;99.90
17639;DHT22;8938;53.546;9.954;2023-02-14T12:15:39;12.90;99.90
17639;DHT22;8938;53.546;9.954;2023-02-14T12:23:34;12.80;99.90
17639;DHT22;8938;53.546;9.954;2023-02-14T12:26:28;12.80;99.90
17639;DHT22;8938;53.546;9.954;2023-02-14T12:29:11;12.90;99.90
17639;DHT22;8938;53.546;9.954;2023-02-14T12:31:39;12.90;99.90
17639;DHT22;8938;53.546;9.954;2023-02-14T12:34:05;12.90;99.90
17639;DHT22;8938;53.546;9.954;2023-02-14T12:39:31;13.10;99.90
17639;DHT22;8938;53.546;9.954;2023-02-14T12:42:35;13.10;99.90
17639;DHT22;8938;53.546;9.954;2023-02-14T12:45:23;13.30;99.90
17639;DHT22;8938;53.546;9.954;2023-02-14T12:56:32;13.70;99.90
17639;DHT22;8938;53.546;9.954;2023-02-14T13:04:54;13.80;99.90
17639;DHT22;8938;53.546;9.954;2023-02-14T13:07:45;13.90;99.90
17639;DHT22;8938;53.546;9.954;2023-02-14T13:13:24;14.00;99.90
17639;DHT22;8938;53.546;9.954;2023-02-14T13:16:15;14.10;99.90
17639;DHT22;8938;53.546;9.954;2023-02-14T13:19:02;14.10;99.90
17639;DHT22;8938;53.546;9.954;2023-02-14T13:21:34;14.10;99.90
17639;DHT22;8938;53.546;9.954;2023-02-14T13:24:20;14.40;99.90
17639;DHT22;8938;53.546;9.954;2023-02-14T13:26:49;14.90;99.90
17639;DHT22;8938;53.546;9.954;2023-02-14T13:29:23;15.30;99.90
17639;DHT22;8938;53.546;9.954;2023-02-14T13:31:55;15.40;99.90
17639;DHT22;8938;53.546;9.954;2023-02-14T13:34:27;15.40;99.90
17639;DHT22;8938;53.546;9.954;2023-02-14T13:36:56;15.20;99.90
17639;DHT22;8938;53.546;9.954;2023-02-14T13:39:35;15.10;99.90
17639;DHT22;8938;53.546;9.954;2023-02-14T13:42:02;14.80;99.90
17639;DHT22;8938;53.546;9.954;2023-02-14T13:44:41;14.80;99.90
17639;DHT22;8938;53.546;9.954;2023-02-14T13:47:15;14.70;99.90
17639;DHT22;8938;53.546;9.954;2023-02-14T13:49:54;14.70;99.90
17639;DHT22;8938;53.546;9.954;2023-02-14T13:52:39;14.60;99.90
17639;DHT22;8938;53.546;9.954;2023-02-14T13:55:08;14.40;99.90
17639;DHT22;8938;53.546;9.954;2023-02-14T13:57:36;14.40;99.90
17639;DHT22;8938;53.546;9.954;2023-02-14T14:00:21;14.40;99.90
17639;DHT22;8938;53.546;9.954;2023-02-14T14:02:49;14.50;99.90
17639;DHT22;8938;53.546;9.954;2023-02-14T14:11:00;14.50;99.90
17639;DHT22;8938;53.546;9.954;2023-02-14T14:18:49;14.30;99.90
17639;DHT22;8938;53.546;9.954;2023-02-14T14:21:29;14.20;99.90
17639;DHT22;8938;53.546;9.954;2023-02-14T14:24:01;14.10;99.90
17639;DHT22;8938;53.546;9.954;2023-02-14T14:26:39;14.10;99.90
17639;DHT22;8938;53.546;9.954;2023-02-14T14:29:24;14.20;99.90
17639;DHT22;8938;53.546;9.954;2023-02-14T14:31:51;14.20;99.90
17639;DHT22;8938;53.546;9.954;2023-02-14T14:34:22;14.30;99.90
17639;DHT22;8938;53.546;9.954;2023-02-14T14:36:50;14.30;99.90
17639;DHT22;8938;53.546;9.954;2023-02-14T14:39:29;14.60;99.90
17639;DHT22;8938;53.546;9.954;2023-02-14T14:42:04;14.20;99.90
17639;DHT22;8938;53.546;9.954;2023-02-14T14:44:33;14.10;99.90
17639;DHT22;8938;53.546;9.954;2023-02-14T14:46:59;14.00;99.90
17639;DHT22;8938;53.546;9.954;2023-02-14T14:49:27;14.00;99.90
17639;DHT22;8938;53.546;9.954;2023-02-14T14:51:54;14.30;99.90
17639;DHT22;8938;53.546;9.954;2023-02-14T14:54:20;13.90;99.90
17639;DHT22;8938;53.546;9.954;2023-02-14T14:56:58;14.00;99.90
17639;DHT22;8938;53.546;9.954;2023-02-14T14:59:34;13.90;99.90
17639;DHT22;8938;53.546;9.954;2023-02-14T15:02:01;13.90;99.90
17639;DHT22;8938;53.546;9.954;2023-02-14T15:04:28;13.90;99.90
17639;DHT22;8938;53.546;9.954;2023-02-14T15:07:15;13.80;99.90
17639;DHT22;8938;53.546;9.954;2023-02-14T15:09:42;13.80;99.90
17639;DHT22;8938;53.546;9.954;2023-02-14T15:12:08;14.20;99.90
17639;DHT22;8938;53.546;9.954;2023-02-14T15:14:53;13.80;99.90
17639;DHT22;8938;53.546;9.954;2023-02-14T15:17:30;13.80;99.90
17639;DHT22;8938;53.546;9.954;2023-02-14T15:20:02;13.80;99.90
17639;DHT22;8938;53.546;9.954;2023-02-14T15:22:43;13.80;99.90
17639;DHT22;8938;53.546;9.954;2023-02-14T15:25:14;13.70;99.90
17639;DHT22;8938;53.546;9.954;2023-02-14T15:27:41;13.70;99.90
17639;DHT22;8938;53.546;9.954;2023-02-14T15:32:48;13.60;99.90
17639;DHT22;8938;53.546;9.954;2023-02-14T15:35:16;13.70;99.90
17639;DHT22;8938;53.546;9.954;2023-02-14T15:37:43;13.90;99.90
17639;DHT22;8938;53.546;9.954;2023-02-14T15:40:25;13.90;99.90
17639;DHT22;8938;53.546;9.954;2023-02-14T15:42:52;13.50;99.90
17639;DHT22;8938;53.546;9.954;2023-02-14T15:48:01;13.70;99.90
17639;DHT22;8938;53.546;9.954;2023-02-14T15:50:30;13.60;99.90
17639;DHT22;8938;53.546;9.954;2023-02-14T15:55:33;13.60;99.90
17639;DHT22;8938;53.546;9.954;2023-02-14T15:58:02;13.70;99.90
17639;DHT22;8938;53.546;9.954;2023-02-14T16:00:29;13.70;99.90
17639;DHT22;8938;53.546;9.954;2023-02-14T16:03:07;13.70;99.90
17639;DHT22;8938;53.546;9.954;2023-02-14T16:05:35;13.70;99.90
17639;DHT22;8938;53.546;9.954;2023-02-14T16:08:17;13.70;99.90
17639;DHT22;8938;53.546;9.954;2023-02-14T16:11:11;13.60;99.90
17639;DHT22;8938;53.546;9.954;2023-02-14T16:13:42;13.40;99.90
17639;DHT22;8938;53.546;9.954;2023-02-14T16:16:11;13.40;99.90
17639;DHT22;8938;53.546;9.954;2023-02-14T16:18:51;14.50;99.90
17639;DHT22;8938;53.546;9.954;2023-02-14T16:26:32;13.10;99.90
17639;DHT22;8938;53.546;9.954;2023-02-14T16:29:03;13.10;99.90
17639;DHT22;8938;53.546;9.954;2023-02-14T16:31:30;13.10;99.90
17639;DHT22;8938;53.546;9.954;2023-02-14T16:33:56;13.20;99.90
17639;DHT22;8938;53.546;9.954;2023-02-14T16:36:25;13.20;99.90
17639;DHT22;8938;53.546;9.954;2023-02-14T16:38:51;13.20;99.90
17639;DHT22;8938;53.546;9.954;2023-02-14T16:41:20;13.30;99.90
17639;DHT22;8938;53.546;9.954;2023-02-14T16:43:46;13.30;99.90
17639;DHT22;8938;53.546;9.954;2023-02-14T16:46:14;13.20;99.90
17639;DHT22;8938;53.546;9.954;2023-02-14T16:48:41;13.20;99.90
17639;DHT22;8938;53.546;9.954;2023-02-14T16:51:12;13.20;99.90
17639;DHT22;8938;53.546;9.954;2023-02-14T16:53:38;13.20;99.90
17639;DHT22;8938;53.546;9.954;2023-02-14T16:56:08;13.10;99.90
17639;DHT22;8938;53.546;9.954;2023-02-14T16:58:35;13.10;99.90
17639;DHT22;8938;53.546;9.954;2023-02-14T17:01:01;13.10;99.90
17639;DHT22;8938;53.546;9.954;2023-02-14T17:03:27;13.00;99.90
17639;DHT22;8938;53.546;9.954;2023-02-14T17:05:54;13.00;99.90
17639;DHT22;8938;53.546;9.954;2023-02-14T17:08:22;13.00;99.90
17639;DHT22;8938;53.546;9.954;2023-02-14T17:10:48;12.90;99.90
17639;DHT22;8938;53.546;9.954;2023-02-14T17:13:17;12.80;99.90
17639;DHT22;8938;53.546;9.954;2023-02-14T17:15:43;12.80;99.90
17639;DHT22;8938;53.546;9.954;2023-02-14T17:18:11;12.80;99.90
17639;DHT22;8938;53.546;9.954;2023-02-14T17:20:37;12.80;99.90
17639;DHT22;8938;53.546;9.954;2023-02-14T17:23:03;12.80;99.90
17639;DHT22;8938;53.546;9.954;2023-02-14T17:25:29;12.80;99.90
17639;DHT22;8938;53.546;9.954;2023-02-14T17:27:54;12.90;99.90
17639;DHT22;8938;53.546;9.954;2023-02-14T17:30:20;12.90;99.90
17639;DHT22;8938;53.546;9.954;2023-02-14T17:32:46;12.90;99.90
17639;DHT22;8938;53.546;9.954;2023-02-14T17:35:14;12.90;99.90
17639;DHT22;8938;53.546;9.954;2023-02-14T17:37:41;15.40;99.90
17639;DHT22;8938;53.546;9.954;2023-02-14T17:40:08;12.90;99.90
17639;DHT22;8938;53.546;9.954;2023-02-14T17:42:34;12.80;99.90
17639;DHT22;8938;53.546;9.954;2023-02-14T17:45:00;12.70;99.90
17639;DHT22;8938;53.546;9.954;2023-02-14T17:47:27;12.60;99.90
17639;DHT22;8938;53.546;9.954;2023-02-14T17:49:53;12.50;99.90
17639;DHT22;8938;53.546;9.954;2023-02-14T17:52:18;12.50;99.90